sensor_id;sensor_type;location;lat;lon;timestamp;P1;durP1;ratioP1;P2;durP2;ratioP2
57697;SDS011;43531;52.152;6.366;2023-05-23T00:00:15;12.82;;;7.75;;
57697;SDS011;43531;52.152;6.366;2023-05-23T00:00:47;7.53;;;6.57;;
57697;SDS011;43531;52.152;6.366;2023-05-23T00:01:19;10.25;;;6.03;;
57697;SDS011;43531;52.152;6.366;2023-05-23T00:01:51;10.20;;;6.72;;
57697;SDS011;43531;52.152;6.366;2023-05-23T00:02:25;8.07;;;7.25;;
57697;SDS011;43531;52.152;6.366;2023-05-23T00:02:59;10.43;;;6.72;;
57697;SDS011;43531;52.152;6.366;2023-05-23T00:03:31;7.95;;;5.95;;
57697;SDS011;43531;52.152;6.366;2023-05-23T00:04:03;7.85;;;5.93;;
57697;SDS011;43531;52.152;6.366;2023-05-23T00:04:35;7.63;;;6.80;;
57697;SDS011;43531;52.152;6.366;2023-05-23T00:05:07;9.98;;;6.93;;
57697;SDS011;43531;52.152;6.366;2023-05-23T00:05:39;9.45;;;5.93;;
57697;SDS011;43531;52.152;6.366;2023-05-23T00:06:11;12.55;;;6.53;;
57697;SDS011;43531;52.152;6.366;2023-05-23T00:06:45;10.75;;;5.90;;
57697;SDS011;43531;52.152;6.366;2023-05-23T00:07:17;12.75;;;7.35;;
57697;SDS011;43531;52.152;6.366;2023-05-23T00:07:49;10.00;;;6.88;;
57697;SDS011;43531;52.152;6.366;2023-05-23T00:08:20;10.85;;;6.75;;
57697;SDS011;43531;52.152;6.366;2023-05-23T00:08:52;9.70;;;7.38;;
57697;SDS011;43531;52.152;6.366;2023-05-23T00:09:23;11.18;;;7.80;;
57697;SDS011;43531;52.152;6.366;2023-05-23T00:09:55;10.48;;;7.00;;
57697;SDS011;43531;52.152;6.366;2023-05-23T00:10:27;11.70;;;7.82;;
57697;SDS011;43531;52.152;6.366;2023-05-23T00:10:58;12.25;;;7.13;;
57697;SDS011;43531;52.152;6.366;2023-05-23T00:11:30;9.10;;;6.82;;
57697;SDS011;43531;52.152;6.366;2023-05-23T00:12:02;10.80;;;7.82;;
57697;SDS011;43531;52.152;6.366;2023-05-23T00:12:34;9.20;;;6.60;;
57697;SDS011;43531;52.152;6.366;2023-05-23T00:13:07;11.10;;;7.45;;
57697;SDS011;43531;52.152;6.366;2023-05-23T00:13:40;9.52;;;7.00;;
57697;SDS011;43531;52.152;6.366;2023-05-23T00:14:12;7.40;;;6.70;;
57697;SDS011;43531;52.152;6.366;2023-05-23T00:14:47;10.98;;;7.72;;
57697;SDS011;43531;52.152;6.366;2023-05-23T00:15:18;11.15;;;7.43;;
57697;SDS011;43531;52.152;6.366;2023-05-23T00:15:50;11.45;;;7.00;;
57697;SDS011;43531;52.152;6.366;2023-05-23T00:16:22;10.50;;;8.07;;
57697;SDS011;43531;52.152;6.366;2023-05-23T00:16:54;8.27;;;7.47;;
57697;SDS011;43531;52.152;6.366;2023-05-23T00:17:25;10.35;;;7.50;;
57697;SDS011;43531;52.152;6.366;2023-05-23T00:17:58;8.70;;;7.47;;
57697;SDS011;43531;52.152;6.366;2023-05-23T00:18:30;8.48;;;7.07;;
57697;SDS011;43531;52.152;6.366;2023-05-23T00:19:02;11.65;;;7.97;;
57697;SDS011;43531;52.152;6.366;2023-05-23T00:19:34;12.48;;;7.57;;
57697;SDS011;43531;52.152;6.366;2023-05-23T00:20:07;10.00;;;7.32;;
57697;SDS011;43531;52.152;6.366;2023-05-23T00:20:42;13.57;;;8.07;;
57697;SDS011;43531;52.152;6.366;2023-05-23T00:21:15;11.05;;;7.50;;
57697;SDS011;43531;52.152;6.366;2023-05-23T00:21:50;11.65;;;7.72;;
57697;SDS011;43531;52.152;6.366;2023-05-23T00:22:23;8.65;;;7.20;;
57697;SDS011;43531;52.152;6.366;2023-05-23T00:22:55;13.32;;;8.77;;
57697;SDS011;43531;52.152;6.366;2023-05-23T00:23:30;15.73;;;10.27;;
57697;SDS011;43531;52.152;6.366;2023-05-23T00:24:04;9.02;;;7.10;;
57697;SDS011;43531;52.152;6.366;2023-05-23T00:24:40;11.50;;;8.45;;
57697;SDS011;43531;52.152;6.366;2023-05-23T00:25:11;9.82;;;8.07;;
57697;SDS011;43531;52.152;6.366;2023-05-23T00:25:44;14.48;;;9.20;;
57697;SDS011;43531;52.152;6.366;2023-05-23T00:26:18;11.90;;;8.50;;
57697;SDS011;43531;52.152;6.366;2023-05-23T00:26:50;11.02;;;8.48;;
57697;SDS011;43531;52.152;6.366;2023-05-23T00:27:22;12.63;;;8.90;;
57697;SDS011;43531;52.152;6.366;2023-05-23T00:27:54;12.50;;;9.05;;
57697;SDS011;43531;52.152;6.366;2023-05-23T00:28:25;15.50;;;10.52;;
57697;SDS011;43531;52.152;6.366;2023-05-23T00:28:58;12.20;;;9.02;;
57697;SDS011;43531;52.152;6.366;2023-05-23T00:29:30;13.48;;;9.35;;
57697;SDS011;43531;52.152;6.366;2023-05-23T00:30:01;11.88;;;8.45;;
57697;SDS011;43531;52.152;6.366;2023-05-23T00:30:33;16.42;;;9.57;;
57697;SDS011;43531;52.152;6.366;2023-05-23T00:31:05;10.63;;;8.45;;
57697;SDS011;43531;52.152;6.366;2023-05-23T00:31:37;18.00;;;9.52;;
57697;SDS011;43531;52.152;6.366;2023-05-23T00:32:09;15.15;;;8.27;;
57697;SDS011;43531;52.152;6.366;2023-05-23T00:32:41;18.10;;;10.20;;
57697;SDS011;43531;52.152;6.366;2023-05-23T00:33:13;15.35;;;8.73;;
57697;SDS011;43531;52.152;6.366;2023-05-23T00:33:46;12.35;;;9.93;;
57697;SDS011;43531;52.152;6.366;2023-05-23T00:34:19;13.65;;;9.85;;
57697;SDS011;43531;52.152;6.366;2023-05-23T00:34:51;14.73;;;9.15;;
57697;SDS011;43531;52.152;6.366;2023-05-23T00:35:24;14.13;;;8.73;;
57697;SDS011;43531;52.152;6.366;2023-05-23T00:35:56;15.75;;;9.90;;
57697;SDS011;43531;52.152;6.366;2023-05-23T00:36:28;14.23;;;9.65;;
57697;SDS011;43531;52.152;6.366;2023-05-23T00:37:03;16.17;;;9.00;;
57697;SDS011;43531;52.152;6.366;2023-05-23T00:37:35;15.98;;;9.63;;
57697;SDS011;43531;52.152;6.366;2023-05-23T00:38:07;19.50;;;9.85;;
57697;SDS011;43531;52.152;6.366;2023-05-23T00:38:39;12.10;;;8.90;;
57697;SDS011;43531;52.152;6.366;2023-05-23T00:39:10;11.38;;;9.45;;
57697;SDS011;43531;52.152;6.366;2023-05-23T00:39:51;14.95;;;10.20;;
57697;SDS011;43531;52.152;6.366;2023-05-23T00:40:22;14.98;;;11.05;;
57697;SDS011;43531;52.152;6.366;2023-05-23T00:40:54;13.65;;;10.30;;
57697;SDS011;43531;52.152;6.366;2023-05-23T00:41:26;17.33;;;9.82;;
57697;SDS011;43531;52.152;6.366;2023-05-23T00:42:03;14.88;;;10.82;;
57697;SDS011;43531;52.152;6.366;2023-05-23T00:42:35;14.88;;;9.70;;
57697;SDS011;43531;52.152;6.366;2023-05-23T00:43:07;12.50;;;9.40;;
57697;SDS011;43531;52.152;6.366;2023-05-23T00:43:39;12.95;;;9.60;;
57697;SDS011;43531;52.152;6.366;2023-05-23T00:44:12;13.77;;;9.95;;
57697;SDS011;43531;52.152;6.366;2023-05-23T00:44:44;14.00;;;9.63;;
57697;SDS011;43531;52.152;6.366;2023-05-23T00:45:15;17.45;;;10.13;;
57697;SDS011;43531;52.152;6.366;2023-05-23T00:45:48;12.60;;;10.50;;
57697;SDS011;43531;52.152;6.366;2023-05-23T00:46:20;17.45;;;10.25;;
57697;SDS011;43531;52.152;6.366;2023-05-23T00:46:52;14.27;;;9.32;;
57697;SDS011;43531;52.152;6.366;2023-05-23T00:47:25;12.32;;;9.98;;
57697;SDS011;43531;52.152;6.366;2023-05-23T00:47:57;15.55;;;9.00;;
57697;SDS011;43531;52.152;6.366;2023-05-23T00:48:30;14.73;;;9.82;;
57697;SDS011;43531;52.152;6.366;2023-05-23T00:49:02;16.05;;;9.88;;
57697;SDS011;43531;52.152;6.366;2023-05-23T00:49:34;13.07;;;10.13;;
57697;SDS011;43531;52.152;6.366;2023-05-23T00:50:10;13.32;;;9.65;;
57697;SDS011;43531;52.152;6.366;2023-05-23T00:50:43;14.02;;;10.90;;
57697;SDS011;43531;52.152;6.366;2023-05-23T00:51:15;14.57;;;8.95;;
57697;SDS011;43531;52.152;6.366;2023-05-23T00:51:46;11.98;;;9.93;;
57697;SDS011;43531;52.152;6.366;2023-05-23T00:52:20;18.50;;;10.27;;
57697;SDS011;43531;52.152;6.366;2023-05-23T00:52:51;13.90;;;9.50;;
57697;SDS011;43531;52.152;6.366;2023-05-23T00:53:23;13.93;;;9.20;;
57697;SDS011;43531;52.152;6.366;2023-05-23T00:53:55;17.05;;;9.52;;
57697;SDS011;43531;52.152;6.366;2023-05-23T00:54:27;18.20;;;9.85;;
57697;SDS011;43531;52.152;6.366;2023-05-23T00:55:01;26.45;;;9.10;;
57697;SDS011;43531;52.152;6.366;2023-05-23T00:55:33;10.82;;;7.93;;
57697;SDS011;43531;52.152;6.366;2023-05-23T00:56:05;15.65;;;9.50;;
57697;SDS011;43531;52.152;6.366;2023-05-23T00:56:37;14.57;;;9.68;;
57697;SDS011;43531;52.152;6.366;2023-05-23T00:57:09;19.67;;;9.85;;
57697;SDS011;43531;52.152;6.366;2023-05-23T00:57:41;15.25;;;8.98;;
57697;SDS011;43531;52.152;6.366;2023-05-23T00:58:15;17.90;;;9.27;;
57697;SDS011;43531;52.152;6.366;2023-05-23T00:58:47;17.02;;;8.40;;
57697;SDS011;43531;52.152;6.366;2023-05-23T00:59:20;11.70;;;9.13;;
57697;SDS011;43531;52.152;6.366;2023-05-23T00:59:52;14.65;;;8.00;;
57697;SDS011;43531;52.152;6.366;2023-05-23T01:00:24;17.58;;;9.15;;
57697;SDS011;43531;52.152;6.366;2023-05-23T01:00:56;19.48;;;9.65;;
57697;SDS011;43531;52.152;6.366;2023-05-23T01:01:30;12.85;;;8.27;;
57697;SDS011;43531;52.152;6.366;2023-05-23T01:02:02;13.82;;;8.52;;
57697;SDS011;43531;52.152;6.366;2023-05-23T01:02:35;12.60;;;8.25;;
57697;SDS011;43531;52.152;6.366;2023-05-23T01:03:12;14.48;;;9.52;;
57697;SDS011;43531;52.152;6.366;2023-05-23T01:03:49;12.68;;;8.10;;
57697;SDS011;43531;52.152;6.366;2023-05-23T01:04:20;17.20;;;10.40;;
57697;SDS011;43531;52.152;6.366;2023-05-23T01:04:57;16.58;;;8.80;;
57697;SDS011;43531;52.152;6.366;2023-05-23T01:05:29;11.65;;;8.00;;
57697;SDS011;43531;52.152;6.366;2023-05-23T01:06:01;12.25;;;9.30;;
57697;SDS011;43531;52.152;6.366;2023-05-23T01:06:32;10.68;;;7.63;;
57697;SDS011;43531;52.152;6.366;2023-05-23T01:07:04;14.25;;;8.00;;
57697;SDS011;43531;52.152;6.366;2023-05-23T01:07:36;15.00;;;8.02;;
57697;SDS011;43531;52.152;6.366;2023-05-23T01:08:08;14.68;;;9.05;;
57697;SDS011;43531;52.152;6.366;2023-05-23T01:08:40;10.00;;;8.18;;
57697;SDS011;43531;52.152;6.366;2023-05-23T01:09:14;15.02;;;8.77;;
57697;SDS011;43531;52.152;6.366;2023-05-23T01:09:46;15.77;;;7.95;;
57697;SDS011;43531;52.152;6.366;2023-05-23T01:10:20;10.60;;;7.45;;
57697;SDS011;43531;52.152;6.366;2023-05-23T01:10:53;15.13;;;7.50;;
57697;SDS011;43531;52.152;6.366;2023-05-23T01:11:32;13.43;;;7.00;;
57697;SDS011;43531;52.152;6.366;2023-05-23T01:14:12;10.65;;;7.88;;
57697;SDS011;43531;52.152;6.366;2023-05-23T01:15:41;11.93;;;7.30;;
57697;SDS011;43531;52.152;6.366;2023-05-23T01:16:40;19.55;;;8.70;;
57697;SDS011;43531;52.152;6.366;2023-05-23T01:17:42;10.15;;;7.28;;
57697;SDS011;43531;52.152;6.366;2023-05-23T01:18:16;11.18;;;7.15;;
57697;SDS011;43531;52.152;6.366;2023-05-23T01:18:55;14.07;;;8.75;;
57697;SDS011;43531;52.152;6.366;2023-05-23T01:20:11;14.60;;;7.72;;
57697;SDS011;43531;52.152;6.366;2023-05-23T01:20:58;16.58;;;8.65;;
57697;SDS011;43531;52.152;6.366;2023-05-23T01:21:34;11.95;;;8.60;;
57697;SDS011;43531;52.152;6.366;2023-05-23T01:22:10;12.30;;;8.25;;
57697;SDS011;43531;52.152;6.366;2023-05-23T01:24:09;10.43;;;8.73;;
57697;SDS011;43531;52.152;6.366;2023-05-23T01:25:10;13.50;;;7.07;;
57697;SDS011;43531;52.152;6.366;2023-05-23T01:27:15;12.35;;;6.53;;
57697;SDS011;43531;52.152;6.366;2023-05-23T01:28:09;12.13;;;8.15;;
57697;SDS011;43531;52.152;6.366;2023-05-23T01:28:46;7.85;;;5.40;;
57697;SDS011;43531;52.152;6.366;2023-05-23T01:29:56;10.70;;;6.35;;
57697;SDS011;43531;52.152;6.366;2023-05-23T01:30:29;9.80;;;6.30;;
57697;SDS011;43531;52.152;6.366;2023-05-23T01:31:03;11.15;;;6.03;;
57697;SDS011;43531;52.152;6.366;2023-05-23T01:31:36;10.40;;;6.32;;
57697;SDS011;43531;52.152;6.366;2023-05-23T01:32:20;9.27;;;5.75;;
57697;SDS011;43531;52.152;6.366;2023-05-23T01:32:53;8.98;;;5.80;;
57697;SDS011;43531;52.152;6.366;2023-05-23T01:33:27;9.23;;;5.75;;
57697;SDS011;43531;52.152;6.366;2023-05-23T01:33:58;10.77;;;6.53;;
57697;SDS011;43531;52.152;6.366;2023-05-23T01:34:32;12.20;;;7.82;;
57697;SDS011;43531;52.152;6.366;2023-05-23T01:35:05;10.93;;;7.30;;
57697;SDS011;43531;52.152;6.366;2023-05-23T01:35:37;10.88;;;6.13;;
57697;SDS011;43531;52.152;6.366;2023-05-23T01:36:11;12.48;;;7.30;;
57697;SDS011;43531;52.152;6.366;2023-05-23T01:36:44;12.48;;;6.80;;
57697;SDS011;43531;52.152;6.366;2023-05-23T01:37:17;9.13;;;6.80;;
57697;SDS011;43531;52.152;6.366;2023-05-23T01:37:51;8.23;;;6.97;;
57697;SDS011;43531;52.152;6.366;2023-05-23T01:38:23;9.20;;;5.20;;
57697;SDS011;43531;52.152;6.366;2023-05-23T01:38:56;12.50;;;5.88;;
57697;SDS011;43531;52.152;6.366;2023-05-23T01:39:27;11.05;;;6.65;;
57697;SDS011;43531;52.152;6.366;2023-05-23T01:39:59;10.65;;;6.45;;
57697;SDS011;43531;52.152;6.366;2023-05-23T01:40:31;9.32;;;5.53;;
57697;SDS011;43531;52.152;6.366;2023-05-23T01:41:02;7.95;;;5.97;;
57697;SDS011;43531;52.152;6.366;2023-05-23T01:41:35;9.73;;;5.57;;
57697;SDS011;43531;52.152;6.366;2023-05-23T01:42:06;9.98;;;6.10;;
57697;SDS011;43531;52.152;6.366;2023-05-23T01:42:38;15.20;;;5.43;;
57697;SDS011;43531;52.152;6.366;2023-05-23T01:43:10;9.55;;;5.65;;
57697;SDS011;43531;52.152;6.366;2023-05-23T01:43:42;10.68;;;7.20;;
57697;SDS011;43531;52.152;6.366;2023-05-23T01:44:14;15.38;;;7.55;;
57697;SDS011;43531;52.152;6.366;2023-05-23T01:44:46;13.68;;;5.90;;
57697;SDS011;43531;52.152;6.366;2023-05-23T01:45:18;12.55;;;7.43;;
57697;SDS011;43531;52.152;6.366;2023-05-23T01:45:51;12.82;;;6.30;;
57697;SDS011;43531;52.152;6.366;2023-05-23T01:46:25;12.48;;;8.00;;
57697;SDS011;43531;52.152;6.366;2023-05-23T01:46:58;8.75;;;5.93;;
57697;SDS011;43531;52.152;6.366;2023-05-23T01:47:29;10.80;;;6.32;;
57697;SDS011;43531;52.152;6.366;2023-05-23T01:48:01;11.57;;;6.70;;
57697;SDS011;43531;52.152;6.366;2023-05-23T01:48:34;13.48;;;6.82;;
57697;SDS011;43531;52.152;6.366;2023-05-23T01:49:08;10.68;;;7.22;;
57697;SDS011;43531;52.152;6.366;2023-05-23T01:49:42;13.95;;;8.10;;
57697;SDS011;43531;52.152;6.366;2023-05-23T01:50:15;16.38;;;7.75;;
57697;SDS011;43531;52.152;6.366;2023-05-23T01:50:47;9.98;;;7.05;;
57697;SDS011;43531;52.152;6.366;2023-05-23T01:51:20;14.20;;;7.78;;
57697;SDS011;43531;52.152;6.366;2023-05-23T01:51:52;16.55;;;8.48;;
57697;SDS011;43531;52.152;6.366;2023-05-23T01:52:34;12.95;;;8.10;;
57697;SDS011;43531;52.152;6.366;2023-05-23T01:53:07;12.02;;;8.13;;
57697;SDS011;43531;52.152;6.366;2023-05-23T01:53:40;10.02;;;8.68;;
57697;SDS011;43531;52.152;6.366;2023-05-23T01:54:12;14.00;;;8.30;;
57697;SDS011;43531;52.152;6.366;2023-05-23T01:54:44;10.95;;;9.75;;
57697;SDS011;43531;52.152;6.366;2023-05-23T01:55:19;20.70;;;8.95;;
57697;SDS011;43531;52.152;6.366;2023-05-23T01:55:54;14.23;;;9.90;;
57697;SDS011;43531;52.152;6.366;2023-05-23T01:56:26;17.33;;;8.57;;
57697;SDS011;43531;52.152;6.366;2023-05-23T01:56:59;18.05;;;10.18;;
57697;SDS011;43531;52.152;6.366;2023-05-23T01:57:31;15.60;;;8.95;;
57697;SDS011;43531;52.152;6.366;2023-05-23T01:58:04;13.13;;;8.65;;
57697;SDS011;43531;52.152;6.366;2023-05-23T01:58:36;14.85;;;9.85;;
57697;SDS011;43531;52.152;6.366;2023-05-23T01:59:08;16.55;;;10.13;;
57697;SDS011;43531;52.152;6.366;2023-05-23T01:59:39;13.77;;;8.77;;
57697;SDS011;43531;52.152;6.366;2023-05-23T02:00:11;15.57;;;10.27;;
57697;SDS011;43531;52.152;6.366;2023-05-23T02:00:45;14.90;;;10.43;;
57697;SDS011;43531;52.152;6.366;2023-05-23T02:01:17;18.10;;;11.68;;
57697;SDS011;43531;52.152;6.366;2023-05-23T02:01:49;19.13;;;11.13;;
57697;SDS011;43531;52.152;6.366;2023-05-23T02:02:22;19.95;;;10.85;;
57697;SDS011;43531;52.152;6.366;2023-05-23T02:02:53;16.00;;;11.90;;
57697;SDS011;43531;52.152;6.366;2023-05-23T02:03:25;14.80;;;9.60;;
57697;SDS011;43531;52.152;6.366;2023-05-23T02:03:57;18.30;;;10.48;;
57697;SDS011;43531;52.152;6.366;2023-05-23T02:04:29;16.88;;;10.50;;
57697;SDS011;43531;52.152;6.366;2023-05-23T02:05:02;21.05;;;11.00;;
57697;SDS011;43531;52.152;6.366;2023-05-23T02:05:34;23.17;;;10.48;;
57697;SDS011;43531;52.152;6.366;2023-05-23T02:06:07;19.13;;;11.70;;
57697;SDS011;43531;52.152;6.366;2023-05-23T02:06:39;20.10;;;10.82;;
57697;SDS011;43531;52.152;6.366;2023-05-23T02:07:16;19.73;;;12.30;;
57697;SDS011;43531;52.152;6.366;2023-05-23T02:07:52;14.30;;;10.30;;
57697;SDS011;43531;52.152;6.366;2023-05-23T02:08:24;16.85;;;10.45;;
57697;SDS011;43531;52.152;6.366;2023-05-23T02:08:56;17.38;;;11.38;;
57697;SDS011;43531;52.152;6.366;2023-05-23T02:09:28;18.23;;;10.27;;
57697;SDS011;43531;52.152;6.366;2023-05-23T02:10:02;15.27;;;10.40;;
57697;SDS011;43531;52.152;6.366;2023-05-23T02:10:34;17.17;;;9.90;;
57697;SDS011;43531;52.152;6.366;2023-05-23T02:11:06;18.38;;;11.15;;
57697;SDS011;43531;52.152;6.366;2023-05-23T02:11:39;16.27;;;9.55;;
57697;SDS011;43531;52.152;6.366;2023-05-23T02:12:10;19.58;;;10.65;;
57697;SDS011;43531;52.152;6.366;2023-05-23T02:12:42;17.65;;;11.20;;
57697;SDS011;43531;52.152;6.366;2023-05-23T02:13:14;17.65;;;9.98;;
57697;SDS011;43531;52.152;6.366;2023-05-23T02:13:46;16.75;;;10.70;;
57697;SDS011;43531;52.152;6.366;2023-05-23T02:14:18;16.73;;;9.70;;
57697;SDS011;43531;52.152;6.366;2023-05-23T02:14:52;16.92;;;10.15;;
57697;SDS011;43531;52.152;6.366;2023-05-23T02:15:25;19.20;;;10.30;;
57697;SDS011;43531;52.152;6.366;2023-05-23T02:15:57;17.17;;;10.48;;
57697;SDS011;43531;52.152;6.366;2023-05-23T02:16:29;16.55;;;10.73;;
57697;SDS011;43531;52.152;6.366;2023-05-23T02:17:00;16.83;;;10.00;;
57697;SDS011;43531;52.152;6.366;2023-05-23T02:17:32;16.58;;;11.52;;
57697;SDS011;43531;52.152;6.366;2023-05-23T02:18:04;26.05;;;10.48;;
57697;SDS011;43531;52.152;6.366;2023-05-23T02:18:37;19.70;;;11.73;;
57697;SDS011;43531;52.152;6.366;2023-05-23T02:19:09;22.40;;;10.80;;
57697;SDS011;43531;52.152;6.366;2023-05-23T02:19:42;17.75;;;11.05;;
57697;SDS011;43531;52.152;6.366;2023-05-23T02:20:14;17.52;;;10.80;;
57697;SDS011;43531;52.152;6.366;2023-05-23T02:20:45;21.08;;;11.65;;
57697;SDS011;43531;52.152;6.366;2023-05-23T02:21:17;16.65;;;10.52;;
57697;SDS011;43531;52.152;6.366;2023-05-23T02:21:49;21.75;;;12.02;;
57697;SDS011;43531;52.152;6.366;2023-05-23T02:22:22;17.90;;;10.50;;
57697;SDS011;43531;52.152;6.366;2023-05-23T02:22:55;23.00;;;11.32;;
57697;SDS011;43531;52.152;6.366;2023-05-23T02:23:26;16.65;;;10.75;;
57697;SDS011;43531;52.152;6.366;2023-05-23T02:23:58;17.08;;;10.57;;
57697;SDS011;43531;52.152;6.366;2023-05-23T02:24:30;16.38;;;10.50;;
57697;SDS011;43531;52.152;6.366;2023-05-23T02:25:01;24.80;;;11.15;;
57697;SDS011;43531;52.152;6.366;2023-05-23T02:25:33;16.20;;;11.20;;
57697;SDS011;43531;52.152;6.366;2023-05-23T02:26:05;18.23;;;11.98;;
57697;SDS011;43531;52.152;6.366;2023-05-23T02:26:36;23.77;;;12.32;;
57697;SDS011;43531;52.152;6.366;2023-05-23T02:27:08;15.38;;;9.80;;
57697;SDS011;43531;52.152;6.366;2023-05-23T02:27:40;22.90;;;10.95;;
57697;SDS011;43531;52.152;6.366;2023-05-23T02:28:11;18.77;;;11.23;;
57697;SDS011;43531;52.152;6.366;2023-05-23T02:28:44;18.15;;;10.82;;
57697;SDS011;43531;52.152;6.366;2023-05-23T02:29:18;17.38;;;10.85;;
57697;SDS011;43531;52.152;6.366;2023-05-23T02:29:50;20.08;;;10.98;;
57697;SDS011;43531;52.152;6.366;2023-05-23T02:30:22;15.85;;;11.07;;
57697;SDS011;43531;52.152;6.366;2023-05-23T02:30:53;18.02;;;10.15;;
57697;SDS011;43531;52.152;6.366;2023-05-23T02:31:25;23.00;;;11.70;;
57697;SDS011;43531;52.152;6.366;2023-05-23T02:31:58;19.45;;;11.43;;
57697;SDS011;43531;52.152;6.366;2023-05-23T02:32:33;20.67;;;12.32;;
57697;SDS011;43531;52.152;6.366;2023-05-23T02:33:05;23.13;;;10.95;;
57697;SDS011;43531;52.152;6.366;2023-05-23T02:33:38;16.30;;;11.50;;
57697;SDS011;43531;52.152;6.366;2023-05-23T02:34:12;20.48;;;10.30;;
57697;SDS011;43531;52.152;6.366;2023-05-23T02:34:44;26.58;;;12.45;;
57697;SDS011;43531;52.152;6.366;2023-05-23T02:35:18;18.10;;;12.10;;
57697;SDS011;43531;52.152;6.366;2023-05-23T02:35:49;19.73;;;12.50;;
57697;SDS011;43531;52.152;6.366;2023-05-23T02:36:21;15.48;;;10.38;;
57697;SDS011;43531;52.152;6.366;2023-05-23T02:36:53;17.20;;;10.45;;
57697;SDS011;43531;52.152;6.366;2023-05-23T02:37:25;15.65;;;10.88;;
57697;SDS011;43531;52.152;6.366;2023-05-23T02:37:59;16.85;;;9.68;;
57697;SDS011;43531;52.152;6.366;2023-05-23T02:38:31;18.05;;;11.02;;
57697;SDS011;43531;52.152;6.366;2023-05-23T02:39:02;19.05;;;11.15;;
57697;SDS011;43531;52.152;6.366;2023-05-23T02:39:35;18.00;;;11.38;;
57697;SDS011;43531;52.152;6.366;2023-05-23T02:40:07;14.23;;;10.55;;
57697;SDS011;43531;52.152;6.366;2023-05-23T02:40:39;17.13;;;10.63;;
57697;SDS011;43531;52.152;6.366;2023-05-23T02:41:11;26.20;;;11.25;;
57697;SDS011;43531;52.152;6.366;2023-05-23T02:41:43;16.92;;;11.27;;
57697;SDS011;43531;52.152;6.366;2023-05-23T02:42:15;16.05;;;11.45;;
57697;SDS011;43531;52.152;6.366;2023-05-23T02:42:46;19.33;;;10.23;;
57697;SDS011;43531;52.152;6.366;2023-05-23T02:43:18;14.57;;;10.82;;
57697;SDS011;43531;52.152;6.366;2023-05-23T02:43:50;16.52;;;10.18;;
57697;SDS011;43531;52.152;6.366;2023-05-23T02:44:22;19.02;;;10.68;;
57697;SDS011;43531;52.152;6.366;2023-05-23T02:44:53;19.52;;;10.15;;
57697;SDS011;43531;52.152;6.366;2023-05-23T02:45:26;20.60;;;10.43;;
57697;SDS011;43531;52.152;6.366;2023-05-23T02:46:01;20.67;;;10.60;;
57697;SDS011;43531;52.152;6.366;2023-05-23T02:46:32;19.80;;;11.63;;
57697;SDS011;43531;52.152;6.366;2023-05-23T02:47:12;14.18;;;9.38;;
57697;SDS011;43531;52.152;6.366;2023-05-23T02:47:43;17.88;;;10.27;;
57697;SDS011;43531;52.152;6.366;2023-05-23T02:48:15;20.63;;;10.27;;
57697;SDS011;43531;52.152;6.366;2023-05-23T02:48:48;13.32;;;9.75;;
57697;SDS011;43531;52.152;6.366;2023-05-23T02:49:20;17.15;;;9.80;;
57697;SDS011;43531;52.152;6.366;2023-05-23T02:49:54;12.23;;;10.25;;
57697;SDS011;43531;52.152;6.366;2023-05-23T02:50:26;16.55;;;11.23;;
57697;SDS011;43531;52.152;6.366;2023-05-23T02:50:58;16.80;;;10.80;;
57697;SDS011;43531;52.152;6.366;2023-05-23T02:51:30;18.15;;;10.80;;
57697;SDS011;43531;52.152;6.366;2023-05-23T02:52:02;28.77;;;12.70;;
57697;SDS011;43531;52.152;6.366;2023-05-23T02:52:34;16.83;;;10.35;;
57697;SDS011;43531;52.152;6.366;2023-05-23T02:53:06;17.40;;;10.77;;
57697;SDS011;43531;52.152;6.366;2023-05-23T02:53:37;16.83;;;11.57;;
57697;SDS011;43531;52.152;6.366;2023-05-23T02:54:09;17.30;;;11.15;;
57697;SDS011;43531;52.152;6.366;2023-05-23T02:54:42;14.85;;;10.65;;
57697;SDS011;43531;52.152;6.366;2023-05-23T02:55:14;17.25;;;9.82;;
57697;SDS011;43531;52.152;6.366;2023-05-23T02:55:49;20.55;;;12.05;;
57697;SDS011;43531;52.152;6.366;2023-05-23T02:56:21;13.55;;;10.13;;
57697;SDS011;43531;52.152;6.366;2023-05-23T02:56:53;17.60;;;9.27;;
57697;SDS011;43531;52.152;6.366;2023-05-23T02:57:26;18.88;;;11.38;;
57697;SDS011;43531;52.152;6.366;2023-05-23T02:57:58;17.67;;;11.48;;
57697;SDS011;43531;52.152;6.366;2023-05-23T02:58:29;18.45;;;10.98;;
57697;SDS011;43531;52.152;6.366;2023-05-23T02:59:02;20.27;;;11.63;;
57697;SDS011;43531;52.152;6.366;2023-05-23T02:59:34;15.38;;;10.57;;
57697;SDS011;43531;52.152;6.366;2023-05-23T03:00:05;15.90;;;10.82;;
57697;SDS011;43531;52.152;6.366;2023-05-23T03:00:38;17.10;;;10.65;;
57697;SDS011;43531;52.152;6.366;2023-05-23T03:01:10;13.00;;;9.80;;
57697;SDS011;43531;52.152;6.366;2023-05-23T03:01:42;15.98;;;10.77;;
57697;SDS011;43531;52.152;6.366;2023-05-23T03:02:14;15.85;;;10.43;;
57697;SDS011;43531;52.152;6.366;2023-05-23T03:02:46;17.77;;;10.32;;
57697;SDS011;43531;52.152;6.366;2023-05-23T03:03:18;14.07;;;10.05;;
57697;SDS011;43531;52.152;6.366;2023-05-23T03:03:50;15.05;;;9.52;;
57697;SDS011;43531;52.152;6.366;2023-05-23T03:04:21;14.32;;;9.93;;
57697;SDS011;43531;52.152;6.366;2023-05-23T03:04:53;24.42;;;11.63;;
57697;SDS011;43531;52.152;6.366;2023-05-23T03:05:26;20.30;;;11.45;;
57697;SDS011;43531;52.152;6.366;2023-05-23T03:05:58;16.10;;;10.27;;
57697;SDS011;43531;52.152;6.366;2023-05-23T03:06:29;16.35;;;9.93;;
57697;SDS011;43531;52.152;6.366;2023-05-23T03:07:04;18.60;;;10.07;;
57697;SDS011;43531;52.152;6.366;2023-05-23T03:07:47;16.27;;;9.80;;
57697;SDS011;43531;52.152;6.366;2023-05-23T03:08:19;18.08;;;10.63;;
57697;SDS011;43531;52.152;6.366;2023-05-23T03:08:50;15.35;;;9.98;;
57697;SDS011;43531;52.152;6.366;2023-05-23T03:09:23;19.42;;;11.70;;
57697;SDS011;43531;52.152;6.366;2023-05-23T03:09:55;19.00;;;10.95;;
57697;SDS011;43531;52.152;6.366;2023-05-23T03:10:27;15.10;;;11.35;;
57697;SDS011;43531;52.152;6.366;2023-05-23T03:10:59;15.80;;;10.30;;
57697;SDS011;43531;52.152;6.366;2023-05-23T03:11:31;14.68;;;11.02;;
57697;SDS011;43531;52.152;6.366;2023-05-23T03:12:05;16.67;;;11.43;;
57697;SDS011;43531;52.152;6.366;2023-05-23T03:12:37;16.73;;;10.85;;
57697;SDS011;43531;52.152;6.366;2023-05-23T03:13:09;17.77;;;11.38;;
57697;SDS011;43531;52.152;6.366;2023-05-23T03:13:41;19.38;;;11.80;;
57697;SDS011;43531;52.152;6.366;2023-05-23T03:14:12;12.43;;;10.10;;
57697;SDS011;43531;52.152;6.366;2023-05-23T03:14:44;16.10;;;10.95;;
57697;SDS011;43531;52.152;6.366;2023-05-23T03:15:16;18.00;;;10.35;;
57697;SDS011;43531;52.152;6.366;2023-05-23T03:15:48;17.23;;;9.80;;
57697;SDS011;43531;52.152;6.366;2023-05-23T03:16:23;17.27;;;10.93;;
57697;SDS011;43531;52.152;6.366;2023-05-23T03:16:57;15.85;;;9.40;;
57697;SDS011;43531;52.152;6.366;2023-05-23T03:17:29;16.08;;;10.35;;
57697;SDS011;43531;52.152;6.366;2023-05-23T03:18:01;20.90;;;10.27;;
57697;SDS011;43531;52.152;6.366;2023-05-23T03:18:35;18.52;;;10.23;;
57697;SDS011;43531;52.152;6.366;2023-05-23T03:19:07;19.67;;;10.70;;
57697;SDS011;43531;52.152;6.366;2023-05-23T03:19:38;17.88;;;9.65;;
57697;SDS011;43531;52.152;6.366;2023-05-23T03:20:10;18.70;;;10.77;;
57697;SDS011;43531;52.152;6.366;2023-05-23T03:20:42;15.23;;;9.82;;
57697;SDS011;43531;52.152;6.366;2023-05-23T03:21:17;16.35;;;9.35;;
57697;SDS011;43531;52.152;6.366;2023-05-23T03:21:49;17.90;;;11.18;;
57697;SDS011;43531;52.152;6.366;2023-05-23T03:22:22;22.38;;;9.80;;